sensor_id;sensor_type;location;lat;lon;timestamp;temperature;humidity
21551;DHT22;10936;49.836;7.078;2022-08-01T05:02:02;27.50;92.10
21551;DHT22;10936;49.836;7.078;2022-08-01T05:04:28;27.60;92.10
21551;DHT22;10936;49.836;7.078;2022-08-01T05:06:53;27.50;92.10
21551;DHT22;10936;49.836;7.078;2022-08-01T05:09:19;27.60;92.20
21551;DHT22;10936;49.836;7.078;2022-08-01T05:11:45;27.60;92.20
21551;DHT22;10936;49.836;7.078;2022-08-01T05:14:11;27.50;92.10
21551;DHT22;10936;49.836;7.078;2022-08-01T05:16:37;27.60;92.20
21551;DHT22;10936;49.836;7.078;2022-08-01T05:19:02;27.60;92.20
21551;DHT22;10936;49.836;7.078;2022-08-01T05:21:28;27.60;92.20
21551;DHT22;10936;49.836;7.078;2022-08-01T05:23:53;27.60;92.20
21551;DHT22;10936;49.836;7.078;2022-08-01T05:26:19;27.60;92.20
21551;DHT22;10936;49.836;7.078;2022-08-01T05:28:45;27.60;92.20
21551;DHT22;10936;49.836;7.078;2022-08-01T05:31:10;27.60;92.30
21551;DHT22;10936;49.836;7.078;2022-08-01T05:33:36;27.60;92.30
21551;DHT22;10936;49.836;7.078;2022-08-01T05:36:02;27.60;92.40
21551;DHT22;10936;49.836;7.078;2022-08-01T05:38:27;27.60;92.40
21551;DHT22;10936;49.836;7.078;2022-08-01T05:40:53;27.60;92.40
21551;DHT22;10936;49.836;7.078;2022-08-01T05:43:19;27.60;92.40
21551;DHT22;10936;49.836;7.078;2022-08-01T05:45:45;27.60;92.40
21551;DHT22;10936;49.836;7.078;2022-08-01T05:48:11;27.60;92.40
21551;DHT22;10936;49.836;7.078;2022-08-01T05:50:36;27.60;92.40
21551;DHT22;10936;49.836;7.078;2022-08-01T05:53:02;27.60;92.40
21551;DHT22;10936;49.836;7.078;2022-08-01T05:55:28;27.60;92.50
21551;DHT22;10936;49.836;7.078;2022-08-01T05:57:54;27.60;92.40
21551;DHT22;10936;49.836;7.078;2022-08-01T06:00:19;27.60;92.50
21551;DHT22;10936;49.836;7.078;2022-08-01T06:02:45;27.60;92.40
21551;DHT22;10936;49.836;7.078;2022-08-01T06:05:11;27.60;92.50
21551;DHT22;10936;49.836;7.078;2022-08-01T06:07:37;27.60;92.50
21551;DHT22;10936;49.836;7.078;2022-08-01T06:10:04;27.60;92.50
21551;DHT22;10936;49.836;7.078;2022-08-01T06:12:33;27.60;92.50
21551;DHT22;10936;49.836;7.078;2022-08-01T06:14:59;27.60;92.50
21551;DHT22;10936;49.836;7.078;2022-08-01T06:17:24;27.60;92.60
21551;DHT22;10936;49.836;7.078;2022-08-01T06:19:50;27.60;92.60
21551;DHT22;10936;49.836;7.078;2022-08-01T06:22:16;27.60;92.60
21551;DHT22;10936;49.836;7.078;2022-08-01T06:24:42;27.60;92.60
21551;DHT22;10936;49.836;7.078;2022-08-01T06:27:07;27.60;92.60
21551;DHT22;10936;49.836;7.078;2022-08-01T06:29:33;27.60;92.60
21551;DHT22;10936;49.836;7.078;2022-08-01T06:32:00;27.60;92.60
21551;DHT22;10936;49.836;7.078;2022-08-01T06:34:26;27.60;92.60
21551;DHT22;10936;49.836;7.078;2022-08-01T06:36:51;27.60;92.60
21551;DHT22;10936;49.836;7.078;2022-08-01T06:39:17;27.60;92.60
21551;DHT22;10936;49.836;7.078;2022-08-01T06:41:43;27.60;92.60
21551;DHT22;10936;49.836;7.078;2022-08-01T06:44:12;27.60;92.70
21551;DHT22;10936;49.836;7.078;2022-08-01T06:46:38;27.60;92.60
21551;DHT22;10936;49.836;7.078;2022-08-01T06:49:04;27.60;92.70
21551;DHT22;10936;49.836;7.078;2022-08-01T06:51:29;27.60;92.70
21551;DHT22;10936;49.836;7.078;2022-08-01T06:53:55;27.60;92.70
21551;DHT22;10936;49.836;7.078;2022-08-01T06:56:21;27.60;92.80
21551;DHT22;10936;49.836;7.078;2022-08-01T06:58:46;27.60;92.80
21551;DHT22;10936;49.836;7.078;2022-08-01T07:01:12;27.60;92.80
21551;DHT22;10936;49.836;7.078;2022-08-01T07:03:38;27.60;92.80
21551;DHT22;10936;49.836;7.078;2022-08-01T07:06:04;27.60;92.80
21551;DHT22;10936;49.836;7.078;2022-08-01T07:08:30;27.60;92.90
21551;DHT22;10936;49.836;7.078;2022-08-01T07:10:55;27.60;92.80
21551;DHT22;10936;49.836;7.078;2022-08-01T07:13:25;27.70;92.90
21551;DHT22;10936;49.836;7.078;2022-08-01T07:15:51;27.70;92.90
21551;DHT22;10936;49.836;7.078;2022-08-01T07:18:18;27.70;92.90
21551;DHT22;10936;49.836;7.078;2022-08-01T07:20:43;27.60;92.90
21551;DHT22;10936;49.836;7.078;2022-08-01T07:23:11;27.70;93.00
21551;DHT22;10936;49.836;7.078;2022-08-01T07:25:37;27.60;93.10
21551;DHT22;10936;49.836;7.078;2022-08-01T07:28:03;27.60;93.30
21551;DHT22;10936;49.836;7.078;2022-08-01T07:30:29;27.50;93.10
21551;DHT22;10936;49.836;7.078;2022-08-01T07:32:54;27.50;93.10
21551;DHT22;10936;49.836;7.078;2022-08-01T07:35:20;27.50;93.10
21551;DHT22;10936;49.836;7.078;2022-08-01T07:37:46;27.50;93.20
21551;DHT22;10936;49.836;7.078;2022-08-01T07:40:11;27.50;93.10
21551;DHT22;10936;49.836;7.078;2022-08-01T07:42:37;27.50;93.10
21551;DHT22;10936;49.836;7.078;2022-08-01T07:45:03;27.60;93.20
21551;DHT22;10936;49.836;7.078;2022-08-01T07:47:29;27.60;93.10
21551;DHT22;10936;49.836;7.078;2022-08-01T07:50:02;27.60;93.10
21551;DHT22;10936;49.836;7.078;2022-08-01T07:52:28;27.60;93.10
21551;DHT22;10936;49.836;7.078;2022-08-01T07:54:54;27.60;93.20
21551;DHT22;10936;49.836;7.078;2022-08-01T07:57:21;27.60;93.10
21551;DHT22;10936;49.836;7.078;2022-08-01T07:59:47;27.60;93.50
21551;DHT22;10936;49.836;7.078;2022-08-01T08:02:13;27.40;93.40
21551;DHT22;10936;49.836;7.078;2022-08-01T08:04:38;27.40;93.50
21551;DHT22;10936;49.836;7.078;2022-08-01T08:07:04;27.40;93.50
21551;DHT22;10936;49.836;7.078;2022-08-01T08:09:30;27.40;93.50
21551;DHT22;10936;49.836;7.078;2022-08-01T08:11:56;27.40;93.40
21551;DHT22;10936;49.836;7.078;2022-08-01T08:14:21;27.40;93.40
21551;DHT22;10936;49.836;7.078;2022-08-01T08:16:48;27.40;93.50
21551;DHT22;10936;49.836;7.078;2022-08-01T08:19:13;27.40;93.30
21551;DHT22;10936;49.836;7.078;2022-08-01T08:21:39;27.40;93.40
21551;DHT22;10936;49.836;7.078;2022-08-01T08:24:06;27.40;93.30
21551;DHT22;10936;49.836;7.078;2022-08-01T08:26:51;27.40;93.30
21551;DHT22;10936;49.836;7.078;2022-08-01T08:29:18;27.40;93.30
21551;DHT22;10936;49.836;7.078;2022-08-01T08:31:44;27.50;93.20
21551;DHT22;10936;49.836;7.078;2022-08-01T08:34:10;27.50;93.20
21551;DHT22;10936;49.836;7.078;2022-08-01T08:36:36;27.50;93.10
21551;DHT22;10936;49.836;7.078;2022-08-01T08:39:02;27.60;93.10
21551;DHT22;10936;49.836;7.078;2022-08-01T08:41:35;27.60;93.10
21551;DHT22;10936;49.836;7.078;2022-08-01T08:44:02;27.60;93.30
21551;DHT22;10936;49.836;7.078;2022-08-01T08:46:28;27.50;93.20
21551;DHT22;10936;49.836;7.078;2022-08-01T08:48:58;27.50;93.30
21551;DHT22;10936;49.836;7.078;2022-08-01T08:51:26;27.40;93.40
21551;DHT22;10936;49.836;7.078;2022-08-01T08:53:56;27.40;93.30
21551;DHT22;10936;49.836;7.078;2022-08-01T08:56:24;27.50;93.30
21551;DHT22;10936;49.836;7.078;2022-08-01T08:58:51;27.50;93.30
21551;DHT22;10936;49.836;7.078;2022-08-01T09:01:17;27.50;93.20
21551;DHT22;10936;49.836;7.078;2022-08-01T09:03:43;27.50;93.20
21551;DHT22;10936;49.836;7.078;2022-08-01T09:06:09;27.50;93.10
21551;DHT22;10936;49.836;7.078;2022-08-01T09:08:35;27.60;93.10
21551;DHT22;10936;49.836;7.078;2022-08-01T09:11:01;27.60;93.00
21551;DHT22;10936;49.836;7.078;2022-08-01T09:13:27;27.60;93.00
21551;DHT22;10936;49.836;7.078;2022-08-01T09:15:54;27.60;92.80
21551;DHT22;10936;49.836;7.078;2022-08-01T09:18:30;27.70;92.90
21551;DHT22;10936;49.836;7.078;2022-08-01T09:23:44;27.70;92.80
21551;DHT22;10936;49.836;7.078;2022-08-01T09:26:11;27.70;92.80
21551;DHT22;10936;49.836;7.078;2022-08-01T09:28:39;27.80;92.70
21551;DHT22;10936;49.836;7.078;2022-08-01T09:31:09;27.70;92.70
21551;DHT22;10936;49.836;7.078;2022-08-01T09:33:51;27.80;92.80
21551;DHT22;10936;49.836;7.078;2022-08-01T09:36:25;27.70;92.70
21551;DHT22;10936;49.836;7.078;2022-08-01T09:38:53;27.70;92.70
21551;DHT22;10936;49.836;7.078;2022-08-01T09:41:29;27.80;92.70
21551;DHT22;10936;49.836;7.078;2022-08-01T09:43:56;27.80;92.70
21551;DHT22;10936;49.836;7.078;2022-08-01T09:46:22;27.80;92.70
21551;DHT22;10936;49.836;7.078;2022-08-01T09:51:36;27.80;92.60
21551;DHT22;10936;49.836;7.078;2022-08-01T09:54:06;27.80;92.70
21551;DHT22;10936;49.836;7.078;2022-08-01T09:56:39;27.80;92.60
21551;DHT22;10936;49.836;7.078;2022-08-01T09:59:05;27.80;92.70
21551;DHT22;10936;49.836;7.078;2022-08-01T10:01:51;27.80;92.70
21551;DHT22;10936;49.836;7.078;2022-08-01T10:04:19;27.80;92.60
21551;DHT22;10936;49.836;7.078;2022-08-01T10:06:49;27.80;92.70
21551;DHT22;10936;49.836;7.078;2022-08-01T10:09:28;27.80;92.60
21551;DHT22;10936;49.836;7.078;2022-08-01T10:11:55;27.80;92.60
21551;DHT22;10936;49.836;7.078;2022-08-01T10:14:25;27.80;92.60
21551;DHT22;10936;49.836;7.078;2022-08-01T10:16:52;27.80;92.60
21551;DHT22;10936;49.836;7.078;2022-08-01T10:19:21;27.80;92.50
21551;DHT22;10936;49.836;7.078;2022-08-01T10:21:52;27.90;92.60
21551;DHT22;10936;49.836;7.078;2022-08-01T10:24:23;27.90;92.50
21551;DHT22;10936;49.836;7.078;2022-08-01T10:26:52;27.90;92.50
21551;DHT22;10936;49.836;7.078;2022-08-01T10:29:19;27.90;92.50
21551;DHT22;10936;49.836;7.078;2022-08-01T10:31:48;27.90;92.50
21551;DHT22;10936;49.836;7.078;2022-08-01T10:34:15;27.90;92.40
21551;DHT22;10936;49.836;7.078;2022-08-01T10:36:45;27.90;92.40
21551;DHT22;10936;49.836;7.078;2022-08-01T10:39:12;28.00;92.40
21551;DHT22;10936;49.836;7.078;2022-08-01T10:41:39;28.00;92.40
21551;DHT22;10936;49.836;7.078;2022-08-01T10:44:07;28.00;92.40
21551;DHT22;10936;49.836;7.078;2022-08-01T10:46:35;28.00;92.30
21551;DHT22;10936;49.836;7.078;2022-08-01T10:49:14;28.00;92.30
21551;DHT22;10936;49.836;7.078;2022-08-01T10:51:41;28.00;92.30
21551;DHT22;10936;49.836;7.078;2022-08-01T10:54:09;28.00;92.30
21551;DHT22;10936;49.836;7.078;2022-08-01T10:56:48;28.10;92.30
21551;DHT22;10936;49.836;7.078;2022-08-01T10:59:34;28.10;92.30
21551;DHT22;10936;49.836;7.078;2022-08-01T11:02:06;28.10;92.30
21551;DHT22;10936;49.836;7.078;2022-08-01T11:07:11;28.10;92.30
21551;DHT22;10936;49.836;7.078;2022-08-01T11:09:39;28.10;92.20
21551;DHT22;10936;49.836;7.078;2022-08-01T11:12:07;28.10;92.20
21551;DHT22;10936;49.836;7.078;2022-08-01T11:17:36;28.20;92.20
21551;DHT22;10936;49.836;7.078;2022-08-01T11:20:12;28.20;92.30
21551;DHT22;10936;49.836;7.078;2022-08-01T11:25:23;28.20;92.20
21551;DHT22;10936;49.836;7.078;2022-08-01T11:27:49;28.20;92.20
21551;DHT22;10936;49.836;7.078;2022-08-01T11:30:34;28.20;92.20
21551;DHT22;10936;49.836;7.078;2022-08-01T11:33:00;28.20;92.20
21551;DHT22;10936;49.836;7.078;2022-08-01T11:35:26;28.20;92.20
21551;DHT22;10936;49.836;7.078;2022-08-01T11:37:53;28.20;92.20
21551;DHT22;10936;49.836;7.078;2022-08-01T11:40:28;28.20;92.20
21551;DHT22;10936;49.836;7.078;2022-08-01T11:45:52;28.20;92.20
21551;DHT22;10936;49.836;7.078;2022-08-01T11:48:21;28.20;92.20
21551;DHT22;10936;49.836;7.078;2022-08-01T11:50:50;28.20;92.20
21551;DHT22;10936;49.836;7.078;2022-08-01T11:53:15;28.20;92.20
21551;DHT22;10936;49.836;7.078;2022-08-01T11:55:49;28.20;92.20
21551;DHT22;10936;49.836;7.078;2022-08-01T11:58:20;28.20;92.20
21551;DHT22;10936;49.836;7.078;2022-08-01T12:00:54;28.20;92.20
21551;DHT22;10936;49.836;7.078;2022-08-01T12:03:30;28.20;92.20
21551;DHT22;10936;49.836;7.078;2022-08-01T12:05:58;28.20;92.20
21551;DHT22;10936;49.836;7.078;2022-08-01T12:08:33;28.20;92.20
21551;DHT22;10936;49.836;7.078;2022-08-01T12:11:00;28.30;92.20
21551;DHT22;10936;49.836;7.078;2022-08-01T12:13:28;28.30;92.30
21551;DHT22;10936;49.836;7.078;2022-08-01T12:16:07;28.30;92.20
21551;DHT22;10936;49.836;7.078;2022-08-01T12:18:41;28.30;92.20
21551;DHT22;10936;49.836;7.078;2022-08-01T12:21:08;28.30;92.20
21551;DHT22;10936;49.836;7.078;2022-08-01T12:23:33;28.30;92.20
21551;DHT22;10936;49.836;7.078;2022-08-01T12:25:59;28.20;92.20
21551;DHT22;10936;49.836;7.078;2022-08-01T12:28:26;28.30;92.20
21551;DHT22;10936;49.836;7.078;2022-08-01T12:30:52;28.30;92.30
21551;DHT22;10936;49.836;7.078;2022-08-01T12:33:19;28.30;92.30
21551;DHT22;10936;49.836;7.078;2022-08-01T12:35:45;28.30;92.20
21551;DHT22;10936;49.836;7.078;2022-08-01T12:38:20;28.30;92.40
21551;DHT22;10936;49.836;7.078;2022-08-01T12:40:50;28.30;92.20
21551;DHT22;10936;49.836;7.078;2022-08-01T12:43:18;28.30;92.20
21551;DHT22;10936;49.836;7.078;2022-08-01T12:45:45;28.20;92.20
21551;DHT22;10936;49.836;7.078;2022-08-01T12:48:15;28.30;92.20
21551;DHT22;10936;49.836;7.078;2022-08-01T12:50:44;28.30;92.20
21551;DHT22;10936;49.836;7.078;2022-08-01T12:53:10;28.40;92.20
21551;DHT22;10936;49.836;7.078;2022-08-01T12:55:47;28.30;92.20
21551;DHT22;10936;49.836;7.078;2022-08-01T12:58:14;28.30;92.20
21551;DHT22;10936;49.836;7.078;2022-08-01T13:00:41;28.40;92.20
21551;DHT22;10936;49.836;7.078;2022-08-01T13:11:11;28.40;92.20
21551;DHT22;10936;49.836;7.078;2022-08-01T13:13:46;28.40;92.20
21551;DHT22;10936;49.836;7.078;2022-08-01T13:16:13;28.40;92.20
21551;DHT22;10936;49.836;7.078;2022-08-01T13:18:39;28.40;92.20
21551;DHT22;10936;49.836;7.078;2022-08-01T13:21:19;28.40;92.20
21551;DHT22;10936;49.836;7.078;2022-08-01T13:24:10;28.40;92.20
21551;DHT22;10936;49.836;7.078;2022-08-01T13:29:12;28.40;92.20
21551;DHT22;10936;49.836;7.078;2022-08-01T13:31:39;28.40;92.10
21551;DHT22;10936;49.836;7.078;2022-08-01T13:34:05;28.40;92.20
21551;DHT22;10936;49.836;7.078;2022-08-01T13:36:31;28.40;92.10
21551;DHT22;10936;49.836;7.078;2022-08-01T13:38:58;28.40;92.10
21551;DHT22;10936;49.836;7.078;2022-08-01T13:41:43;28.40;92.10
21551;DHT22;10936;49.836;7.078;2022-08-01T13:44:09;28.40;92.20
21551;DHT22;10936;49.836;7.078;2022-08-01T13:46:37;28.40;92.10
21551;DHT22;10936;49.836;7.078;2022-08-01T13:49:04;28.40;92.10
21551;DHT22;10936;49.836;7.078;2022-08-01T13:51:30;28.40;92.10
21551;DHT22;10936;49.836;7.078;2022-08-01T13:53:55;28.40;92.10
21551;DHT22;10936;49.836;7.078;2022-08-01T13:56:22;28.40;92.10
21551;DHT22;10936;49.836;7.078;2022-08-01T13:58:48;28.40;92.10
21551;DHT22;10936;49.836;7.078;2022-08-01T14:01:14;28.50;92.10
21551;DHT22;10936;49.836;7.078;2022-08-01T14:03:40;28.50;92.10
21551;DHT22;10936;49.836;7.078;2022-08-01T14:06:06;28.40;92.10
21551;DHT22;10936;49.836;7.078;2022-08-01T14:08:32;28.50;92.10
21551;DHT22;10936;49.836;7.078;2022-08-01T14:10:57;28.50;92.10
21551;DHT22;10936;49.836;7.078;2022-08-01T14:13:27;28.40;92.10
21551;DHT22;10936;49.836;7.078;2022-08-01T14:15:53;28.50;92.10
21551;DHT22;10936;49.836;7.078;2022-08-01T14:18:19;28.40;92.10
21551;DHT22;10936;49.836;7.078;2022-08-01T14:20:45;28.50;92.10
21551;DHT22;10936;49.836;7.078;2022-08-01T14:23:11;28.50;92.10
21551;DHT22;10936;49.836;7.078;2022-08-01T14:25:37;28.50;92.10
21551;DHT22;10936;49.836;7.078;2022-08-01T14:28:03;28.50;92.10
21551;DHT22;10936;49.836;7.078;2022-08-01T14:30:29;28.50;92.10
21551;DHT22;10936;49.836;7.078;2022-08-01T14:32:54;28.50;92.10
21551;DHT22;10936;49.836;7.078;2022-08-01T14:35:21;28.50;92.10
21551;DHT22;10936;49.836;7.078;2022-08-01T14:37:46;28.50;92.10
21551;DHT22;10936;49.836;7.078;2022-08-01T14:40:12;28.50;92.10
21551;DHT22;10936;49.836;7.078;2022-08-01T14:42:38;28.50;92.20
21551;DHT22;10936;49.836;7.078;2022-08-01T14:45:06;28.50;92.30
21551;DHT22;10936;49.836;7.078;2022-08-01T14:47:42;28.50;92.30
21551;DHT22;10936;49.836;7.078;2022-08-01T14:50:12;28.50;92.30
21551;DHT22;10936;49.836;7.078;2022-08-01T14:52:38;28.50;92.30
21551;DHT22;10936;49.836;7.078;2022-08-01T14:55:06;28.50;92.30
21551;DHT22;10936;49.836;7.078;2022-08-01T14:57:32;28.50;92.20
21551;DHT22;10936;49.836;7.078;2022-08-01T14:59:58;28.50;92.20
21551;DHT22;10936;49.836;7.078;2022-08-01T15:02:23;28.50;92.20
21551;DHT22;10936;49.836;7.078;2022-08-01T15:04:49;28.50;92.20
21551;DHT22;10936;49.836;7.078;2022-08-01T15:07:16;28.50;92.20
21551;DHT22;10936;49.836;7.078;2022-08-01T15:09:42;28.50;92.20
21551;DHT22;10936;49.836;7.078;2022-08-01T15:12:10;28.50;92.20
21551;DHT22;10936;49.836;7.078;2022-08-01T15:14:36;28.50;92.20
21551;DHT22;10936;49.836;7.078;2022-08-01T15:17:29;28.40;92.20
21551;DHT22;10936;49.836;7.078;2022-08-01T15:19:57;28.50;92.20
21551;DHT22;10936;49.836;7.078;2022-08-01T15:22:24;28.50;92.20
21551;DHT22;10936;49.836;7.078;2022-08-01T15:24:52;28.50;92.20
21551;DHT22;10936;49.836;7.078;2022-08-01T15:27:18;28.50;92.20
21551;DHT22;10936;49.836;7.078;2022-08-01T15:29:44;28.50;92.20
21551;DHT22;10936;49.836;7.078;2022-08-01T15:32:11;28.50;92.40
21551;DHT22;10936;49.836;7.078;2022-08-01T15:34:37;28.50;92.40
21551;DHT22;10936;49.836;7.078;2022-08-01T15:37:04;28.50;92.40
21551;DHT22;10936;49.836;7.078;2022-08-01T15:39:31;28.50;92.40
21551;DHT22;10936;49.836;7.078;2022-08-01T15:41:59;28.50;92.50
21551;DHT22;10936;49.836;7.078;2022-08-01T15:44:25;28.50;92.50
21551;DHT22;10936;49.836;7.078;2022-08-01T15:46:51;28.50;92.50
21551;DHT22;10936;49.836;7.078;2022-08-01T15:49:17;28.50;92.50
21551;DHT22;10936;49.836;7.078;2022-08-01T15:51:43;28.50;92.50
21551;DHT22;10936;49.836;7.078;2022-08-01T15:54:09;28.50;92.50
21551;DHT22;10936;49.836;7.078;2022-08-01T15:56:36;28.50;92.50
21551;DHT22;10936;49.836;7.078;2022-08-01T15:59:03;28.50;92.40
21551;DHT22;10936;49.836;7.078;2022-08-01T16:01:29;28.50;92.40
21551;DHT22;10936;49.836;7.078;2022-08-01T16:03:55;28.50;92.40
21551;DHT22;10936;49.836;7.078;2022-08-01T16:06:23;28.50;92.40
21551;DHT22;10936;49.836;7.078;2022-08-01T16:08:49;28.50;92.40
21551;DHT22;10936;49.836;7.078;2022-08-01T16:11:15;28.50;92.40
21551;DHT22;10936;49.836;7.078;2022-08-01T16:13:41;28.50;92.40
21551;DHT22;10936;49.836;7.078;2022-08-01T16:16:07;28.50;92.40
21551;DHT22;10936;49.836;7.078;2022-08-01T16:18:33;28.50;92.40
21551;DHT22;10936;49.836;7.078;2022-08-01T16:20:59;28.50;92.50
21551;DHT22;10936;49.836;7.078;2022-08-01T16:23:25;28.40;92.40
21551;DHT22;10936;49.836;7.078;2022-08-01T16:25:51;28.50;92.40
21551;DHT22;10936;49.836;7.078;2022-08-01T16:28:18;28.50;92.50
21551;DHT22;10936;49.836;7.078;2022-08-01T16:30:45;28.50;92.40
21551;DHT22;10936;49.836;7.078;2022-08-01T16:33:11;28.40;92.40
21551;DHT22;10936;49.836;7.078;2022-08-01T16:35:37;28.50;92.40
21551;DHT22;10936;49.836;7.078;2022-08-01T16:38:04;28.50;92.40
21551;DHT22;10936;49.836;7.078;2022-08-01T16:40:31;28.50;92.40
21551;DHT22;10936;49.836;7.078;2022-08-01T16:42:56;28.50;92.50
21551;DHT22;10936;49.836;7.078;2022-08-01T16:45:22;28.50;92.50
21551;DHT22;10936;49.836;7.078;2022-08-01T16:47:48;28.50;92.50
21551;DHT22;10936;49.836;7.078;2022-08-01T16:50:14;28.40;92.40
21551;DHT22;10936;49.836;7.078;2022-08-01T16:52:40;28.50;92.50
21551;DHT22;10936;49.836;7.078;2022-08-01T16:55:06;28.50;92.50
21551;DHT22;10936;49.836;7.078;2022-08-01T16:57:32;28.50;92.50
21551;DHT22;10936;49.836;7.078;2022-08-01T17:00:09;28.50;92.50
21551;DHT22;10936;49.836;7.078;2022-08-01T17:02:37;28.50;92.50
21551;DHT22;10936;49.836;7.078;2022-08-01T17:05:04;28.50;92.50
21551;DHT22;10936;49.836;7.078;2022-08-01T17:07:30;28.40;92.50
21551;DHT22;10936;49.836;7.078;2022-08-01T17:09:55;28.40;92.50
21551;DHT22;10936;49.836;7.078;2022-08-01T17:12:21;28.50;92.40
21551;DHT22;10936;49.836;7.078;2022-08-01T17:14:47;28.40;92.40
21551;DHT22;10936;49.836;7.078;2022-08-01T17:17:13;28.50;92.40
21551;DHT22;10936;49.836;7.078;2022-08-01T17:19:39;28.50;92.40
21551;DHT22;10936;49.836;7.078;2022-08-01T17:22:05;28.50;92.40
21551;DHT22;10936;49.836;7.078;2022-08-01T17:24:30;28.50;92.40
21551;DHT22;10936;49.836;7.078;2022-08-01T17:26:56;28.40;92.40
21551;DHT22;10936;49.836;7.078;2022-08-01T17:29:22;28.40;92.40
21551;DHT22;10936;49.836;7.078;2022-08-01T17:31:47;28.40;92.40
21551;DHT22;10936;49.836;7.078;2022-08-01T17:34:13;28.50;92.40
21551;DHT22;10936;49.836;7.078;2022-08-01T17:36:39;28.50;92.40
21551;DHT22;10936;49.836;7.078;2022-08-01T17:39:05;28.50;92.40
21551;DHT22;10936;49.836;7.078;2022-08-01T17:41:33;28.50;92.40
21551;DHT22;10936;49.836;7.078;2022-08-01T17:43:59;28.50;92.40
21551;DHT22;10936;49.836;7.078;2022-08-01T17:46:24;28.50;92.40
21551;DHT22;10936;49.836;7.078;2022-08-01T17:48:50;28.50;92.40
21551;DHT22;10936;49.836;7.078;2022-08-01T17:51:16;28.50;92.40
21551;DHT22;10936;49.836;7.078;2022-08-01T17:53:43;28.50;92.70
21551;DHT22;10936;49.836;7.078;2022-08-01T17:56:08;28.50;92.40
21551;DHT22;10936;49.836;7.078;2022-08-01T17:58:34;28.40;92.40
21551;DHT22;10936;49.836;7.078;2022-08-01T18:01:00;28.50;92.40
21551;DHT22;10936;49.836;7.078;2022-08-01T18:03:25;28.40;92.40
21551;DHT22;10936;49.836;7.078;2022-08-01T18:05:51;28.40;92.30
21551;DHT22;10936;49.836;7.078;2022-08-01T18:08:17;28.40;92.30
21551;DHT22;10936;49.836;7.078;2022-08-01T18:10:42;28.40;92.30
21551;DHT22;10936;49.836;7.078;2022-08-01T18:13:09;28.40;92.30
21551;DHT22;10936;49.836;7.078;2022-08-01T18:15:35;28.40;92.30
21551;DHT22;10936;49.836;7.078;2022-08-01T18:18:02;28.40;92.30
21551;DHT22;10936;49.836;7.078;2022-08-01T18:20:27;28.40;92.30
21551;DHT22;10936;49.836;7.078;2022-08-01T18:22:53;28.40;92.30
21551;DHT22;10936;49.836;7.078;2022-08-01T18:25:19;28.40;92.30
21551;DHT22;10936;49.836;7.078;2022-08-01T18:27:45;28.40;92.30
21551;DHT22;10936;49.836;7.078;2022-08-01T18:30:11;28.40;92.30
21551;DHT22;10936;49.836;7.078;2022-08-01T18:32:36;28.40;92.30
21551;DHT22;10936;49.836;7.078;2022-08-01T18:35:02;28.40;92.30
21551;DHT22;10936;49.836;7.078;2022-08-01T18:37:28;28.40;92.30
21551;DHT22;10936;49.836;7.078;2022-08-01T18:39:54;28.40;92.30
21551;DHT22;10936;49.836;7.078;2022-08-01T18:42:19;28.40;92.30
21551;DHT22;10936;49.836;7.078;2022-08-01T18:44:45;28.40;92.30
21551;DHT22;10936;49.836;7.078;2022-08-01T18:47:11;28.40;92.30
21551;DHT22;10936;49.836;7.078;2022-08-01T18:49:36;28.40;92.30
21551;DHT22;10936;49.836;7.078;2022-08-01T18:52:02;28.40;92.30
21551;DHT22;10936;49.836;7.078;2022-08-01T18:54:28;28.40;92.30
21551;DHT22;10936;49.836;7.078;2022-08-01T18:56:54;28.40;92.30
21551;DHT22;10936;49.836;7.078;2022-08-01T18:59:19;28.40;92.30
21551;DHT22;10936;49.836;7.078;2022-08-01T19:01:46;28.30;92.30
21551;DHT22;10936;49.836;7.078;2022-08-01T19:04:11;28.30;92.60
21551;DHT22;10936;49.836;7.078;2022-08-01T19:06:38;28.30;92.30
21551;DHT22;10936;49.836;7.078;2022-08-01T19:09:04;28.30;92.30
21551;DHT22;10936;49.836;7.078;2022-08-01T19:11:33;28.30;92.30
21551;DHT22;10936;49.836;7.078;2022-08-01T19:13:59;28.30;92.30
21551;DHT22;10936;49.836;7.078;2022-08-01T19:16:25;28.30;92.30
21551;DHT22;10936;49.836;7.078;2022-08-01T19:18:51;28.20;92.30
21551;DHT22;10936;49.836;7.078;2022-08-01T19:21:17;28.20;92.30
21551;DHT22;10936;49.836;7.078;2022-08-01T19:23:43;28.20;92.30
21551;DHT22;10936;49.836;7.078;2022-08-01T19:26:27;28.20;92.30
21551;DHT22;10936;49.836;7.078;2022-08-01T19:28:57;28.20;92.40
21551;DHT22;10936;49.836;7.078;2022-08-01T19:31:26;28.20;92.40
21551;DHT22;10936;49.836;7.078;2022-08-01T19:33:53;28.20;92.40
21551;DHT22;10936;49.836;7.078;2022-08-01T19:36:20;28.20;92.40
21551;DHT22;10936;49.836;7.078;2022-08-01T19:38:46;28.20;92.40
21551;DHT22;10936;49.836;7.078;2022-08-01T19:41:17;28.20;92.40
21551;DHT22;10936;49.836;7.078;2022-08-01T19:43:44;28.20;92.40
21551;DHT22;10936;49.836;7.078;2022-08-01T19:46:10;28.20;92.40
21551;DHT22;10936;49.836;7.078;2022-08-01T19:48:36;28.20;92.40
21551;DHT22;10936;49.836;7.078;2022-08-01T19:51:04;28.20;92.80
21551;DHT22;10936;49.836;7.078;2022-08-01T19:53:39;28.20;92.40
21551;DHT22;10936;49.836;7.078;2022-08-01T19:56:07;28.20;92.40
21551;DHT22;10936;49.836;7.078;2022-08-01T19:58:39;28.20;92.40
21551;DHT22;10936;49.836;7.078;2022-08-01T20:01:07;28.20;92.40
21551;DHT22;10936;49.836;7.078;2022-08-01T20:03:34;28.20;92.80
21551;DHT22;10936;49.836;7.078;2022-08-01T20:06:01;28.20;92.50
21551;DHT22;10936;49.836;7.078;2022-08-01T20:08:30;28.20;92.50
21551;DHT22;10936;49.836;7.078;2022-08-01T20:10:57;28.10;92.40
21551;DHT22;10936;49.836;7.078;2022-08-01T20:13:23;28.10;92.40
21551;DHT22;10936;49.836;7.078;2022-08-01T20:15:50;28.10;92.40
21551;DHT22;10936;49.836;7.078;2022-08-01T20:18:16;28.10;92.40
21551;DHT22;10936;49.836;7.078;2022-08-01T20:20:44;28.10;92.40
21551;DHT22;10936;49.836;7.078;2022-08-01T20:23:13;28.10;92.50
21551;DHT22;10936;49.836;7.078;2022-08-01T20:25:41;28.10;92.40
21551;DHT22;10936;49.836;7.078;2022-08-01T20:28:10;28.10;92.40
21551;DHT22;10936;49.836;7.078;2022-08-01T20:30:40;28.10;92.80
21551;DHT22;10936;49.836;7.078;2022-08-01T20:33:07;28.10;92.50
21551;DHT22;10936;49.836;7.078;2022-08-01T20:35:35;28.10;92.50
21551;DHT22;10936;49.836;7.078;2022-08-01T20:38:01;28.10;92.50
21551;DHT22;10936;49.836;7.078;2022-08-01T20:40:28;28.10;92.50
21551;DHT22;10936;49.836;7.078;2022-08-01T20:42:55;28.10;92.50
21551;DHT22;10936;49.836;7.078;2022-08-01T20:45:23;28.10;92.50
21551;DHT22;10936;49.836;7.078;2022-08-01T20:47:49;28.10;92.50
21551;DHT22;10936;49.836;7.078;2022-08-01T20:50:19;28.10;92.50
21551;DHT22;10936;49.836;7.078;2022-08-01T20:53:04;28.00;92.50
21551;DHT22;10936;49.836;7.078;2022-08-01T20:55:52;28.00;92.50
21551;DHT22;10936;49.836;7.078;2022-08-01T21:01:14;28.00;92.50
21551;DHT22;10936;49.836;7.078;2022-08-01T21:03:55;28.10;92.50